Time;durP1;ratioP1;P1;durP2;ratioP2;P2;SDS_P1;SDS_P2;PMS_P1;PMS_P2;Temp;Humidity;BMP_temperature;BMP_pressure;BME280_temperature;BME280_humidity;BME280_pressure;Samples;Min_cycle;Max_cycle;Signal;HPM_P1;HPM_P2
2023/03/18 00:00:23;;;;;;;16.35;7.00;;;;;;;5.53;100.00;95389.78;1030565;28;20403;-69
2023/03/18 00:01:00;;;;;;;13.73;7.38;;;;;;;5.54;100.00;95380.97;1028276;28;20027;-68
2023/03/18 00:01:31;;;;;;;10.88;6.95;;;;;;;5.68;100.00;95390.78;1024178;28;20019;-69
2023/03/18 00:02:03;;;;;;;15.80;7.53;;;;;;;5.65;100.00;95382.66;1022540;29;20279;-69
2023/03/18 00:02:34;;;;;;;13.75;6.85;;;;;;;5.64;100.00;95386.31;1021213;29;20042;-69
2023/03/18 00:03:05;;;;;;;15.50;7.03;;;;;;;5.63;100.00;95384.72;1023894;28;20278;-70
2023/03/18 00:03:38;;;;;;;12.20;6.82;;;;;;;5.62;100.00;95383.16;1026558;28;20262;-69
2023/03/18 00:04:10;;;;;;;11.02;6.63;;;;;;;5.64;100.00;95381.09;1027050;28;20102;-69
2023/03/18 00:04:41;;;;;;;14.05;6.72;;;;;;;5.63;100.00;95389.91;1022569;29;20696;-70
2023/03/18 00:05:12;;;;;;;10.88;6.63;;;;;;;5.59;100.00;95379.19;1030167;28;20265;-69
2023/03/18 00:05:42;;;;;;;13.70;7.03;;;;;;;5.61;100.00;95397.97;1026570;28;20731;-69
2023/03/18 00:06:15;;;;;;;10.52;6.28;;;;;;;5.61;100.00;95394.59;1026473;28;20030;-69
2023/03/18 00:06:46;;;;;;;15.35;7.10;;;;;;;5.54;100.00;95391.38;1026390;28;20062;-68
2023/03/18 00:07:16;;;;;;;13.00;6.20;;;;;;;5.53;100.00;95395.75;1026788;28;20613;-69
2023/03/18 00:07:48;;;;;;;11.65;6.10;;;;;;;5.54;100.00;95397.38;1020855;29;20023;-70
2023/03/18 00:08:18;;;;;;;15.52;6.65;;;;;;;5.54;100.00;95402.56;1019137;28;20024;-68
2023/03/18 00:08:49;;;;;;;11.77;6.00;;;;;;;5.48;100.00;95393.09;1024548;28;20748;-71
2023/03/18 00:09:20;;;;;;;12.45;6.60;;;;;;;5.48;100.00;95392.31;1019801;29;20024;-69
2023/03/18 00:09:51;;;;;;;12.25;6.55;;;;;;;5.50;100.00;95400.66;1019676;29;20493;-69
2023/03/18 00:10:22;;;;;;;13.43;6.95;;;;;;;5.47;100.00;95380.34;1019723;29;20445;-69
2023/03/18 00:10:52;;;;;;;10.25;6.22;;;;;;;5.56;100.00;95397.09;1023376;28;20547;-70
2023/03/18 00:11:23;;;;;;;12.98;6.53;;;;;;;5.60;100.00;95396.41;1030545;28;20031;-69
2023/03/18 00:11:55;;;;;;;11.65;6.72;;;;;;;5.57;100.00;95396.88;1028090;28;20018;-69
2023/03/18 00:12:25;;;;;;;10.77;6.32;;;;;;;5.52;100.00;95388.22;1026047;28;20515;-68
2023/03/18 00:12:56;;;;;;;12.25;6.75;;;;;;;5.54;100.00;95401.78;1024349;28;20271;-69
2023/03/18 00:13:27;;;;;;;11.85;6.60;;;;;;;5.51;100.00;95391.84;1022913;28;20023;-70
2023/03/18 00:13:58;;;;;;;10.80;5.85;;;;;;;5.57;100.00;95398.69;1025727;28;20034;-69
2023/03/18 00:14:28;;;;;;;10.63;6.88;;;;;;;5.52;100.00;95391.59;1026647;28;20057;-69
2023/03/18 00:14:59;;;;;;;13.68;6.32;;;;;;;5.53;100.00;95392.38;1018026;29;20363;-71
2023/03/18 00:15:30;;;;;;;11.93;5.97;;;;;;;5.53;100.00;95405.38;1014871;29;20413;-68
2023/03/18 00:16:01;;;;;;;12.98;6.82;;;;;;;5.41;100.00;95385.47;1018509;29;20078;-69
2023/03/18 00:16:32;;;;;;;14.65;7.00;;;;;;;5.50;100.00;95403.25;1014970;29;20059;-69
2023/03/18 00:17:03;;;;;;;11.63;6.70;;;;;;;5.41;100.00;95390.66;1026273;28;20711;-69
2023/03/18 00:17:34;;;;;;;9.25;5.85;;;;;;;5.46;100.00;95400.34;1030599;28;20276;-68
2023/03/18 00:18:05;;;;;;;13.45;6.88;;;;;;;5.48;100.00;95398.31;1030714;28;20904;-71
2023/03/18 00:18:39;;;;;;;11.98;7.10;;;;;;;5.47;100.00;95406.38;1030349;28;20124;-70
2023/03/18 00:19:10;;;;;;;11.88;6.10;;;;;;;5.47;100.00;95401.16;1027043;28;20023;-69
2023/03/18 00:19:41;;;;;;;16.17;6.85;;;;;;;5.37;100.00;95392.19;1032159;28;20348;-69
2023/03/18 00:20:12;;;;;;;12.57;6.47;;;;;;;5.41;100.00;95408.88;1027200;28;20338;-69
2023/03/18 00:20:44;;;;;;;15.98;7.18;;;;;;;5.31;100.00;95393.13;1026565;28;20354;-69
2023/03/18 00:21:15;;;;;;;11.75;6.60;;;;;;;5.38;100.00;95404.16;1026113;28;20298;-68
2023/03/18 00:21:46;;;;;;;13.57;7.07;;;;;;;5.35;100.00;95398.63;1030810;28;20360;-70
2023/03/18 00:22:16;;;;;;;11.68;6.30;;;;;;;5.36;100.00;95400.19;1030679;28;20269;-69
2023/03/18 00:22:47;;;;;;;10.45;6.32;;;;;;;5.27;100.00;95396.44;1026123;28;20030;-69
2023/03/18 00:23:17;;;;;;;18.63;7.00;;;;;;;5.30;100.00;95401.97;1025515;28;20023;-69
2023/03/18 00:23:49;;;;;;;14.40;6.90;;;;;;;5.28;100.00;95404.00;1023957;28;20046;-70
2023/03/18 00:24:19;;;;;;;11.35;6.38;;;;;;;5.28;100.00;95398.00;1022798;29;20023;-70
2023/03/18 00:24:51;;;;;;;10.88;6.30;;;;;;;5.21;100.00;95400.78;1024827;28;20748;-69
2023/03/18 00:25:21;;;;;;;13.27;6.50;;;;;;;5.24;100.00;95402.91;1024368;28;20023;-71
2023/03/18 00:25:53;;;;;;;12.02;6.95;;;;;;;5.19;100.00;95413.22;1030523;28;20262;-69
2023/03/18 00:26:24;;;;;;;12.90;7.38;;;;;;;5.16;100.00;95411.88;1030030;28;20049;-70
2023/03/18 00:26:56;;;;;;;13.15;6.72;;;;;;;5.10;100.00;95409.44;1026951;28;20365;-68
2023/03/18 00:27:27;;;;;;;13.80;7.53;;;;;;;5.05;100.00;95417.94;1034363;28;20260;-69
2023/03/18 00:27:57;;;;;;;12.30;6.78;;;;;;;5.03;100.00;95416.59;1030501;28;20274;-71
2023/03/18 00:28:31;;;;;;;13.52;6.72;;;;;;;5.00;100.00;95406.66;1030686;28;20270;-70
2023/03/18 00:29:02;;;;;;;13.30;6.97;;;;;;;5.02;100.00;95415.00;1026223;28;20027;-69
2023/03/18 00:29:32;;;;;;;10.43;6.38;;;;;;;5.00;100.00;95409.25;1018958;29;20252;-69
2023/03/18 00:30:04;;;;;;;13.25;6.90;;;;;;;5.06;100.00;95406.50;1022349;29;20031;-68
2023/03/18 00:30:37;;;;;;;13.18;6.40;;;;;;;5.02;100.00;95405.41;1025970;28;20089;-69
2023/03/18 00:31:08;;;;;;;14.27;6.70;;;;;;;5.02;100.00;95415.00;1023437;28;20302;-69
2023/03/18 00:31:39;;;;;;;12.52;6.75;;;;;;;5.10;100.00;95412.03;1027057;28;20271;-70
2023/03/18 00:32:09;;;;;;;11.77;6.45;;;;;;;5.08;100.00;95414.09;1026360;28;20269;-69
2023/03/18 00:32:40;;;;;;;10.50;6.22;;;;;;;5.14;100.00;95410.53;1026359;28;20023;-69
2023/03/18 00:33:11;;;;;;;15.55;6.72;;;;;;;5.17;100.00;95405.66;1026387;28;20026;-69
2023/03/18 00:33:44;;;;;;;16.05;6.53;;;;;;;5.05;100.00;95394.53;1026500;28;20416;-69
2023/03/18 00:34:15;;;;;;;12.00;6.60;;;;;;;5.10;100.00;95407.63;1022467;29;20564;-69
2023/03/18 00:34:45;;;;;;;14.77;6.90;;;;;;;5.20;100.00;95413.00;1018996;29;20316;-69
2023/03/18 00:35:16;;;;;;;10.18;6.45;;;;;;;5.10;100.00;95392.03;1022448;28;20505;-69
2023/03/18 00:35:47;;;;;;;11.45;6.35;;;;;;;5.23;100.00;95411.75;1027417;28;20019;-69
2023/03/18 00:36:25;;;;;;;9.68;6.10;;;;;;;5.29;100.00;95405.56;1030264;28;20026;-69
2023/03/18 00:36:59;;;;;;;11.68;6.43;;;;;;;5.20;100.00;95407.78;1026397;28;20038;-69
2023/03/18 00:37:29;;;;;;;10.77;6.32;;;;;;;5.29;100.00;95410.75;1014563;29;20279;-69
2023/03/18 00:38:02;;;;;;;13.90;7.30;;;;;;;5.23;100.00;95411.75;1019340;29;20274;-70
2023/03/18 00:38:34;;;;;;;14.25;7.88;;;;;;;5.18;100.00;95406.44;1019286;29;20020;-69
2023/03/18 00:39:05;;;;;;;12.18;6.72;;;;;;;5.18;100.00;95406.44;1022192;29;20295;-69
2023/03/18 00:39:36;;;;;;;12.43;7.05;;;;;;;5.26;100.00;95416.44;1015048;29;20260;-69
2023/03/18 00:40:09;;;;;;;11.63;6.28;;;;;;;5.04;100.00;95385.16;1014713;29;20268;-69
2023/03/18 00:40:52;;;;;;;11.23;6.30;;;;;;;5.18;100.00;95419.44;1018647;29;20028;-69
2023/03/18 00:41:29;;;;;;;14.43;6.90;;;;;;;5.28;100.00;95411.81;1027284;28;20282;-70
2023/03/18 00:42:06;;;;;;;13.68;6.43;;;;;;;5.64;100.00;95412.34;1026599;28;20337;-68
2023/03/18 00:42:38;;;;;;;15.95;6.70;;;;;;;5.53;100.00;95415.78;1030042;28;20308;-68
2023/03/18 00:43:11;;;;;;;12.18;6.53;;;;;;;5.46;100.00;95415.19;1028936;28;20269;-69
2023/03/18 00:43:51;;;;;;;11.75;6.75;;;;;;;5.39;100.00;95408.31;1026772;28;20273;-68
2023/03/18 00:44:22;;;;;;;11.73;6.25;;;;;;;5.41;100.00;95408.88;1022484;29;20050;-69
2023/03/18 00:44:52;;;;;;;14.48;6.35;;;;;;;5.64;100.00;95407.13;1026416;28;20357;-70
2023/03/18 00:45:23;;;;;;;11.98;6.25;;;;;;;5.61;100.00;95420.63;1022439;29;20266;-68
2023/03/18 00:45:54;;;;;;;12.60;6.95;;;;;;;5.42;100.00;95415.66;1030036;28;20022;-70
2023/03/18 00:46:35;;;;;;;12.48;6.95;;;;;;;5.34;100.00;95417.88;1030313;28;20113;-69
2023/03/18 00:47:05;;;;;;;12.45;6.55;;;;;;;5.27;100.00;95418.03;1026529;28;20262;-69
2023/03/18 00:47:37;;;;;;;13.95;7.50;;;;;;;5.16;100.00;95411.06;1026375;28;20512;-69
2023/03/18 00:48:07;;;;;;;12.63;7.05;;;;;;;5.09;100.00;95413.06;1016075;29;20020;-69
2023/03/18 00:48:38;;;;;;;12.48;6.28;;;;;;;5.02;100.00;95408.00;1023023;28;20289;-69
2023/03/18 00:49:09;;;;;;;11.13;6.38;;;;;;;5.03;100.00;95416.59;1022179;29;20031;-70
2023/03/18 00:49:40;;;;;;;11.70;6.88;;;;;;;4.97;100.00;95419.13;1026455;28;20042;-70
2023/03/18 00:50:11;;;;;;;12.88;6.47;;;;;;;4.88;100.00;95427.53;1020981;28;20334;-70
2023/03/18 00:50:42;;;;;;;10.23;6.25;;;;;;;4.85;100.00;95430.59;1019179;29;20043;-69
2023/03/18 00:51:15;;;;;;;10.40;6.72;;;;;;;4.75;100.00;95423.41;1018411;29;20453;-70
2023/03/18 00:51:46;;;;;;;15.75;7.47;;;;;;;4.70;100.00;95421.50;1030425;28;20257;-69
2023/03/18 00:52:18;;;;;;;14.48;6.85;;;;;;;4.68;100.00;95425.38;1030614;28;20822;-71
2023/03/18 00:52:48;;;;;;;11.02;6.78;;;;;;;4.59;100.00;95424.16;1033755;28;20274;-71
2023/03/18 00:53:20;;;;;;;12.45;7.30;;;;;;;4.54;100.00;95421.47;1035232;28;20331;-69
2023/03/18 00:53:52;;;;;;;11.18;6.38;;;;;;;4.55;100.00;95420.44;1030581;28;20034;-69
2023/03/18 00:54:23;;;;;;;13.68;7.00;;;;;;;4.62;100.00;95426.28;1026208;28;20266;-68
2023/03/18 00:54:54;;;;;;;11.45;6.65;;;;;;;4.56;100.00;95422.00;1026415;28;20655;-69
2023/03/18 00:55:25;;;;;;;12.25;6.75;;;;;;;4.55;100.00;95415.25;1023059;28;20094;-71
2023/03/18 00:55:55;;;;;;;11.15;7.25;;;;;;;4.58;100.00;95432.97;1022196;28;20148;-69
2023/03/18 00:56:29;;;;;;;10.73;6.47;;;;;;;4.48;100.00;95416.16;1025699;28;20412;-69
2023/03/18 00:57:00;;;;;;;14.07;7.45;;;;;;;4.50;100.00;95426.34;1018437;29;20052;-69
2023/03/18 00:57:35;;;;;;;13.68;6.95;;;;;;;4.47;100.00;95422.41;1019608;28;20350;-71
2023/03/18 00:58:06;;;;;;;11.75;6.88;;;;;;;4.46;100.00;95417.41;1027691;28;20465;-68
2023/03/18 00:58:37;;;;;;;16.20;7.05;;;;;;;4.44;100.00;95417.66;1032500;28;20265;-71
2023/03/18 00:59:07;;;;;;;16.80;7.43;;;;;;;4.42;100.00;95414.50;1027057;28;20015;-68
2023/03/18 00:59:38;;;;;;;16.02;7.63;;;;;;;4.45;100.00;95427.03;1026470;28;20559;-68
2023/03/18 01:00:10;;;;;;;13.38;7.43;;;;;;;4.39;100.00;95420.19;1026479;28;20018;-69
2023/03/18 01:00:41;;;;;;;13.70;7.35;;;;;;;4.45;100.00;95434.03;1030854;28;20617;-71
2023/03/18 01:01:12;;;;;;;13.43;7.22;;;;;;;4.42;100.00;95431.88;1026144;28;20270;-69
2023/03/18 01:01:43;;;;;;;13.73;6.82;;;;;;;4.34;100.00;95427.84;1018542;29;20071;-69
2023/03/18 01:02:13;;;;;;;12.65;7.45;;;;;;;4.38;100.00;95436.75;1018499;29;20662;-69
2023/03/18 01:02:44;;;;;;;15.05;7.47;;;;;;;4.34;100.00;95433.06;1025643;28;20019;-72
2023/03/18 01:03:14;;;;;;;14.55;7.30;;;;;;;4.34;100.00;95434.88;1026325;28;20341;-69
2023/03/18 01:03:45;;;;;;;11.93;6.68;;;;;;;4.23;100.00;95420.91;1022489;28;20049;-71
2023/03/18 01:04:16;;;;;;;10.18;6.68;;;;;;;4.26;100.00;95428.22;1021446;29;20090;-69
2023/03/18 01:04:46;;;;;;;11.93;6.72;;;;;;;4.10;100.00;95410.78;1022344;29;20560;-69
2023/03/18 01:05:17;;;;;;;13.50;7.80;;;;;;;4.25;100.00;95439.63;1022358;29;20642;-71
2023/03/18 01:05:47;;;;;;;12.63;7.00;;;;;;;4.26;100.00;95438.63;1026284;28;20031;-68
2023/03/18 01:06:21;;;;;;;12.43;6.82;;;;;;;4.22;100.00;95432.28;1026214;28;20481;-69
2023/03/18 01:06:51;;;;;;;13.30;6.78;;;;;;;4.20;100.00;95431.75;1030421;28;20019;-69
2023/03/18 01:07:22;;;;;;;13.25;7.05;;;;;;;4.16;100.00;95423.63;1026352;28;20317;-69
2023/03/18 01:07:53;;;;;;;14.63;6.80;;;;;;;4.23;100.00;95431.28;1026744;28;20034;-70
2023/03/18 01:08:23;;;;;;;10.48;6.38;;;;;;;4.20;100.00;95431.75;1026754;28;20026;-70
2023/03/18 01:08:55;;;;;;;13.52;7.47;;;;;;;4.28;100.00;95441.75;1022501;28;20019;-69
2023/03/18 01:09:25;;;;;;;12.63;6.93;;;;;;;4.33;100.00;95436.69;1026091;28;20262;-69
2023/03/18 01:09:56;;;;;;;12.15;6.80;;;;;;;4.33;100.00;95443.69;1026315;28;20266;-69
2023/03/18 01:10:27;;;;;;;11.45;6.40;;;;;;;4.29;100.00;95435.53;1026801;28;20507;-69
2023/03/18 01:10:57;;;;;;;11.02;6.32;;;;;;;4.29;100.00;95432.94;1030350;28;20026;-70
2023/03/18 01:11:28;;;;;;;12.52;6.75;;;;;;;4.23;100.00;95428.69;1018409;29;20690;-68
2023/03/18 01:11:59;;;;;;;11.43;6.50;;;;;;;4.26;100.00;95436.03;1018448;29;20274;-68
2023/03/18 01:12:29;;;;;;;12.90;7.10;;;;;;;4.32;100.00;95429.88;1017966;29;20016;-69
2023/03/18 01:13:00;;;;;;;12.82;7.10;;;;;;;4.27;100.00;95431.63;1024140;28;20027;-68
2023/03/18 01:13:30;;;;;;;13.85;6.70;;;;;;;4.32;100.00;95437.69;1026213;28;20015;-69
2023/03/18 01:14:02;;;;;;;11.30;6.97;;;;;;;4.34;100.00;95434.88;1026208;28;20633;-70
2023/03/18 01:14:44;;;;;;;10.30;6.10;;;;;;;4.38;100.00;95430.78;1023553;28;20055;-69
2023/03/18 01:15:16;;;;;;;12.80;7.03;;;;;;;4.43;100.00;95431.69;1023915;28;20262;-68
2023/03/18 01:15:47;;;;;;;12.30;6.63;;;;;;;4.53;100.00;95435.47;1020103;29;20266;-69
2023/03/18 01:16:18;;;;;;;13.48;6.60;;;;;;;4.52;100.00;95436.50;1023548;28;20270;-71
2023/03/18 01:16:48;;;;;;;13.68;6.68;;;;;;;4.54;100.00;95440.44;1026446;28;20030;-68
2023/03/18 01:17:18;;;;;;;10.05;6.32;;;;;;;4.51;100.00;95429.72;1025833;28;20027;-68
2023/03/18 01:17:51;;;;;;;11.68;6.20;;;;;;;4.47;100.00;95440.56;1022598;28;20078;-68
2023/03/18 01:18:25;;;;;;;11.68;6.15;;;;;;;4.44;100.00;95435.84;1022528;28;20011;-70
2023/03/18 01:18:56;;;;;;;11.98;6.70;;;;;;;4.42;100.00;95431.88;1021588;29;20357;-72
2023/03/18 01:19:28;;;;;;;12.77;7.18;;;;;;;4.43;100.00;95436.88;1015131;29;20268;-68
2023/03/18 01:19:59;;;;;;;10.45;6.32;;;;;;;4.41;100.00;95433.69;1012145;29;20021;-69
2023/03/18 01:20:29;;;;;;;10.10;6.03;;;;;;;4.39;100.00;95430.56;1018911;29;20267;-69
2023/03/18 01:21:00;;;;;;;11.30;6.63;;;;;;;4.39;100.00;95432.34;1018740;29;20268;-69
2023/03/18 01:21:31;;;;;;;13.57;6.63;;;;;;;4.35;100.00;95426.81;1024959;28;20055;-68
2023/03/18 01:22:02;;;;;;;13.25;6.75;;;;;;;4.34;100.00;95420.06;1022152;29;20481;-69
2023/03/18 01:22:33;;;;;;;13.68;7.40;;;;;;;4.41;100.00;95425.91;1029676;28;20018;-68
2023/03/18 01:23:04;;;;;;;11.38;6.95;;;;;;;4.42;100.00;95427.47;1029374;28;20266;-69
2023/03/18 01:23:38;;;;;;;13.15;7.25;;;;;;;4.36;100.00;95420.63;1026039;28;20464;-69
2023/03/18 01:24:10;;;;;;;11.80;6.88;;;;;;;4.46;100.00;95428.63;1026989;28;20297;-69
2023/03/18 01:24:41;;;;;;;10.43;6.30;;;;;;;4.46;100.00;95431.22;1027021;28;20301;-69
2023/03/18 01:25:12;;;;;;;11.02;6.65;;;;;;;4.45;100.00;95421.03;1027007;28;20293;-69
2023/03/18 01:25:43;;;;;;;11.93;7.03;;;;;;;4.44;100.00;95422.06;1026351;28;20401;-68
2023/03/18 01:26:14;;;;;;;12.00;6.75;;;;;;;4.47;100.00;95426.81;1026340;28;20255;-69
2023/03/18 01:26:44;;;;;;;11.75;6.75;;;;;;;4.48;100.00;95431.75;1030724;28;20261;-70
2023/03/18 01:27:15;;;;;;;9.40;6.03;;;;;;;4.56;100.00;95422.00;1030204;28;20034;-69
2023/03/18 01:27:45;;;;;;;11.10;6.18;;;;;;;4.61;100.00;95429.91;1030434;28;20026;-68
2023/03/18 01:28:16;;;;;;;14.32;6.95;;;;;;;4.52;100.00;95421.69;1038388;28;20116;-70
2023/03/18 01:28:46;;;;;;;14.80;6.88;;;;;;;4.49;100.00;95422.97;1030275;28;20025;-69
2023/03/18 01:29:19;;;;;;;14.88;7.47;;;;;;;4.47;100.00;95430.19;1026135;28;20499;-69
2023/03/18 01:29:50;;;;;;;13.82;6.95;;;;;;;4.43;100.00;95428.28;1026483;28;20023;-70
2023/03/18 01:30:22;;;;;;;12.95;6.57;;;;;;;4.44;100.00;95424.66;1026987;28;20606;-69
2023/03/18 01:30:54;;;;;;;11.80;6.55;;;;;;;4.44;100.00;95422.84;1030338;28;20065;-69
2023/03/18 01:31:24;;;;;;;12.68;6.43;;;;;;;4.43;100.00;95418.69;1026604;28;20347;-69
2023/03/18 01:31:55;;;;;;;12.52;6.40;;;;;;;4.43;100.00;95423.09;1026109;28;20337;-68
2023/03/18 01:32:26;;;;;;;11.57;6.88;;;;;;;4.38;100.00;95421.19;1022831;28;20027;-70
2023/03/18 01:32:56;;;;;;;13.80;6.82;;;;;;;4.39;100.00;95427.16;1026476;28;20274;-69
2023/03/18 01:33:28;;;;;;;11.00;5.93;;;;;;;4.38;100.00;95428.97;1022266;29;20027;-69
2023/03/18 01:33:59;;;;;;;12.63;6.47;;;;;;;4.41;100.00;95420.72;1021929;28;20037;-71
2023/03/18 01:34:29;;;;;;;15.90;6.82;;;;;;;4.38;100.00;95426.38;1018871;28;20299;-68
2023/03/18 01:35:03;;;;;;;13.68;6.97;;;;;;;4.35;100.00;95420.84;1027048;28;20096;-70
2023/03/18 01:35:34;;;;;;;11.60;6.45;;;;;;;4.36;100.00;95419.81;1030140;28;20033;-70
2023/03/18 01:36:06;;;;;;;12.02;6.60;;;;;;;4.40;100.00;95421.75;1026058;28;20289;-69
2023/03/18 01:36:36;;;;;;;12.45;6.82;;;;;;;4.38;100.00;95423.78;1026516;28;20264;-67
2023/03/18 01:37:09;;;;;;;10.65;6.57;;;;;;;4.31;100.00;95420.53;1023389;28;20267;-69
2023/03/18 01:37:39;;;;;;;12.50;6.53;;;;;;;4.32;100.00;95424.69;1022701;28;20427;-68
2023/03/18 01:38:09;;;;;;;10.40;6.20;;;;;;;4.22;100.00;95411.50;1026157;28;20265;-68
2023/03/18 01:38:41;;;;;;;14.55;6.65;;;;;;;4.20;100.00;95419.53;1026536;28;20520;-71
2023/03/18 01:39:11;;;;;;;14.55;6.38;;;;;;;4.16;100.00;95415.03;1022642;28;20019;-69
2023/03/18 01:39:42;;;;;;;12.88;6.57;;;;;;;4.12;100.00;95422.47;1026112;28;20263;-69
2023/03/18 01:40:13;;;;;;;12.02;6.22;;;;;;;4.07;100.00;95425.00;1026125;28;20031;-68
2023/03/18 01:40:44;;;;;;;11.50;6.50;;;;;;;4.09;100.00;95427.34;1018424;29;20099;-69
2023/03/18 01:41:16;;;;;;;13.43;7.20;;;;;;;4.05;100.00;95421.03;1018255;29;20259;-70
2023/03/18 01:41:47;;;;;;;12.90;7.20;;;;;;;3.93;100.00;95408.88;1018795;29;20027;-70
2023/03/18 01:42:19;;;;;;;13.93;7.32;;;;;;;4.00;100.00;95425.13;1025930;28;20262;-69
2023/03/18 01:43:15;;;;;;;13.25;6.97;;;;;;;4.00;100.00;95419.13;1022177;28;20262;-69
2023/03/18 01:43:46;;;;;;;13.75;6.90;;;;;;;4.03;100.00;95423.88;1022253;29;20363;-69
2023/03/18 01:44:19;;;;;;;16.10;7.22;;;;;;;4.03;100.00;95421.28;1021906;29;20282;-70
2023/03/18 01:45:07;;;;;;;11.15;6.30;;;;;;;4.03;100.00;95423.88;1026540;28;20811;-69
2023/03/18 01:45:37;;;;;;;9.50;5.95;;;;;;;4.01;100.00;95429.28;1032724;28;20261;-69
2023/03/18 01:46:26;;;;;;;17.70;6.65;;;;;;;4.01;100.00;95421.50;1030198;28;20754;-68
2023/03/18 01:46:56;;;;;;;12.10;6.65;;;;;;;3.99;100.00;95430.53;1026161;28;20527;-71
2023/03/18 01:47:27;;;;;;;11.55;6.47;;;;;;;3.96;100.00;95425.81;1028347;28;20289;-69
2023/03/18 01:47:57;;;;;;;16.45;6.97;;;;;;;3.96;100.00;95428.41;1028556;28;20415;-69
2023/03/18 01:48:30;;;;;;;13.35;6.95;;;;;;;3.96;100.00;95431.00;1022230;29;20030;-69
2023/03/18 01:49:18;;;;;;;13.40;6.78;;;;;;;3.94;100.00;95425.25;1021842;28;20102;-69
2023/03/18 01:49:49;;;;;;;12.38;6.45;;;;;;;3.96;100.00;95433.59;1031908;28;20265;-70
2023/03/18 01:50:27;;;;;;;11.10;6.97;;;;;;;3.94;100.00;95426.03;1024422;28;20691;-69
2023/03/18 01:50:59;;;;;;;12.18;6.90;;;;;;;3.91;100.00;95423.88;1018167;29;20023;-69
2023/03/18 01:51:30;;;;;;;13.70;6.93;;;;;;;3.90;100.00;95432.69;1014712;29;20936;-69
2023/03/18 01:52:09;;;;;;;11.50;7.05;;;;;;;3.88;100.00;95431.34;1025762;28;20285;-69
2023/03/18 01:52:40;;;;;;;11.57;6.85;;;;;;;4.01;100.00;95431.88;1029918;28;20109;-72
2023/03/18 01:53:15;;;;;;;13.32;6.22;;;;;;;4.05;100.00;95434.03;1017227;29;20263;-70
2023/03/18 01:53:47;;;;;;;11.75;6.90;;;;;;;3.97;100.00;95430.75;1026132;28;20425;-69
2023/03/18 01:54:17;;;;;;;10.80;6.65;;;;;;;3.94;100.00;95428.63;1025922;28;20799;-69
2023/03/18 01:54:52;;;;;;;12.40;6.72;;;;;;;3.96;100.00;95425.81;1026180;28;20424;-68
2023/03/18 01:55:25;;;;;;;13.57;6.65;;;;;;;3.94;100.00;95420.84;1014387;29;20214;-68
2023/03/18 01:55:56;;;;;;;13.50;6.65;;;;;;;3.96;100.00;95424.00;1016238;29;20901;-70
2023/03/18 01:56:27;;;;;;;11.65;6.57;;;;;;;3.99;100.00;95426.16;1018248;29;20733;-70
2023/03/18 01:56:57;;;;;;;14.90;6.82;;;;;;;4.00;100.00;95434.72;1025253;28;20298;-68
2023/03/18 01:57:29;;;;;;;12.63;6.47;;;;;;;3.99;100.00;95428.75;1018920;29;20031;-69
2023/03/18 01:58:03;;;;;;;12.65;6.45;;;;;;;4.01;100.00;95437.06;1025868;28;20031;-69
2023/03/18 01:58:37;;;;;;;13.35;6.20;;;;;;;4.04;100.00;95424.66;1030207;28;20646;-69
2023/03/18 01:59:08;;;;;;;11.15;6.70;;;;;;;4.06;100.00;95433.00;1029781;28;20325;-69
2023/03/18 01:59:40;;;;;;;12.68;6.53;;;;;;;4.00;100.00;95421.72;1026284;28;20324;-69
2023/03/18 02:00:10;;;;;;;13.50;7.03;;;;;;;3.94;100.00;95407.84;1027487;28;20022;-70
2023/03/18 02:00:44;;;;;;;11.27;6.60;;;;;;;4.11;100.00;95430.50;1027641;28;20270;-70
2023/03/18 02:01:29;;;;;;;11.38;6.72;;;;;;;4.11;100.00;95435.72;1018879;29;20098;-70
2023/03/18 02:02:03;;;;;;;12.50;6.38;;;;;;;4.09;100.00;95424.75;1021725;29;20895;-69
2023/03/18 02:02:33;;;;;;;11.27;6.38;;;;;;;4.12;100.00;95421.69;1022270;29;20297;-69
2023/03/18 02:03:05;;;;;;;11.77;6.30;;;;;;;3.99;100.00;95407.97;1027156;28;20278;-69
2023/03/18 02:03:36;;;;;;;12.30;7.05;;;;;;;4.14;100.00;95433.44;1026022;28;20078;-70
2023/03/18 02:04:09;;;;;;;11.60;6.45;;;;;;;4.07;100.00;95426.81;1030180;28;20278;-69
2023/03/18 02:05:00;;;;;;;11.23;6.47;;;;;;;4.08;100.00;95442.13;1026168;28;20277;-69
2023/03/18 02:05:31;;;;;;;11.70;6.43;;;;;;;4.04;100.00;95441.03;1026112;28;20395;-71
2023/03/18 02:06:02;;;;;;;11.68;6.82;;;;;;;4.01;100.00;95425.91;1022179;29;20270;-69
2023/03/18 02:06:32;;;;;;;12.63;6.47;;;;;;;4.07;100.00;95439.78;1022271;29;20607;-69
2023/03/18 02:07:06;;;;;;;11.43;6.70;;;;;;;3.97;100.00;95435.94;1025807;28;20601;-71
2023/03/18 02:07:41;;;;;;;13.70;7.10;;;;;;;4.00;100.00;95443.28;1026647;28;20023;-69
2023/03/18 02:08:11;;;;;;;13.23;6.80;;;;;;;3.96;100.00;95444.75;1030222;28;20335;-68
2023/03/18 02:08:42;;;;;;;11.48;6.50;;;;;;;3.89;100.00;95435.50;1030280;28;20369;-69
2023/03/18 02:09:12;;;;;;;13.48;6.57;;;;;;;3.77;100.00;95420.75;1027027;28;20053;-69
2023/03/18 02:09:46;;;;;;;12.35;6.88;;;;;;;3.87;100.00;95443.53;1022150;28;20022;-69
2023/03/18 02:10:27;;;;;;;10.65;5.85;;;;;;;3.85;100.00;95447.34;1022091;29;20035;-69
2023/03/18 02:10:58;;;;;;;13.75;6.40;;;;;;;3.80;100.00;95450.66;1022240;29;20279;-69
2023/03/18 02:11:34;;;;;;;13.95;6.53;;;;;;;3.81;100.00;95446.25;1026126;28;20624;-69
2023/03/18 02:12:05;;;;;;;13.43;6.30;;;;;;;3.80;100.00;95435.06;1020384;29;20107;-69
2023/03/18 02:12:37;;;;;;;10.70;6.40;;;;;;;3.82;100.00;95448.59;1021546;29;20271;-71
2023/03/18 02:13:09;;;;;;;12.70;6.70;;;;;;;3.74;100.00;95441.94;1017914;29;20114;-69
2023/03/18 02:13:41;;;;;;;14.52;6.60;;;;;;;3.76;100.00;95444.34;1022708;28;20334;-70
2023/03/18 02:14:12;;;;;;;13.65;6.85;;;;;;;3.77;100.00;95451.09;1026797;28;20262;-68
2023/03/18 02:14:43;;;;;;;11.85;6.82;;;;;;;3.82;100.00;95458.97;1018540;29;20274;-69
2023/03/18 02:15:15;;;;;;;12.10;6.93;;;;;;;3.78;100.00;95447.47;1022591;28;20270;-70
2023/03/18 02:16:02;;;;;;;12.20;6.43;;;;;;;3.80;100.00;95453.25;1018108;29;20024;-69
2023/03/18 02:16:56;;;;;;;12.70;6.30;;;;;;;3.80;100.00;95453.25;1021593;29;20262;-69
2023/03/18 02:17:29;;;;;;;11.25;6.10;;;;;;;3.79;100.00;95449.06;1026111;28;20266;-69
2023/03/18 02:18:04;;;;;;;10.80;6.65;;;;;;;3.84;100.00;95456.16;1021973;28;20380;-68
2023/03/18 02:18:37;;;;;;;12.00;6.25;;;;;;;3.82;100.00;95442.63;1022019;29;20326;-69
2023/03/18 02:19:28;;;;;;;16.38;7.13;;;;;;;3.87;100.00;95446.13;1014166;29;20268;-68
2023/03/18 02:20:26;;;;;;;16.38;7.55;;;;;;;3.82;100.00;95448.59;1016984;29;20843;-70
2023/03/18 02:21:00;;;;;;;12.63;6.85;;;;;;;3.91;100.00;95451.66;1024413;28;20110;-70
2023/03/18 02:21:58;;;;;;;10.85;6.60;;;;;;;3.88;100.00;95447.69;1029602;28;20982;-69
2023/03/18 02:22:37;;;;;;;13.38;7.05;;;;;;;3.88;100.00;95437.31;1030509;28;20268;-69
2023/03/18 02:23:25;;;;;;;10.27;6.22;;;;;;;3.96;100.00;95449.97;1022608;29;20270;-69
2023/03/18 02:24:12;;;;;;;11.85;6.53;;;;;;;4.04;100.00;95453.22;1029112;28;20254;-69
2023/03/18 02:24:53;;;;;;;12.25;6.78;;;;;;;3.94;100.00;95446.00;1020740;28;20264;-69
2023/03/18 02:25:29;;;;;;;13.10;6.13;;;;;;;3.96;100.00;95452.56;1018615;29;20310;-69
2023/03/18 02:26:03;;;;;;;12.05;7.00;;;;;;;3.89;100.00;95444.09;1026023;28;20265;-68
2023/03/18 02:26:53;;;;;;;12.80;7.60;;;;;;;3.97;100.00;95459.31;1022683;28;20302;-68
2023/03/18 02:27:25;;;;;;;14.40;6.80;;;;;;;3.97;100.00;95453.34;1030186;28;20794;-69
2023/03/18 02:28:00;;;;;;;15.30;6.60;;;;;;;4.03;100.00;95457.63;1026967;28;20030;-69
2023/03/18 02:28:31;;;;;;;11.95;6.53;;;;;;;4.04;100.00;95461.00;1025503;28;20294;-69
2023/03/18 02:29:03;;;;;;;10.18;6.13;;;;;;;4.03;100.00;95462.03;1027018;28;20287;-71
2023/03/18 02:29:34;;;;;;;11.15;6.72;;;;;;;4.04;100.00;95458.41;1026498;28;20267;-70
2023/03/18 02:30:11;;;;;;;11.88;7.22;;;;;;;3.97;100.00;95448.94;1026932;28;20297;-69
2023/03/18 02:30:46;;;;;;;11.93;6.55;;;;;;;4.07;100.00;95461.34;1023103;29;20023;-68
2023/03/18 02:31:17;;;;;;;12.60;6.97;;;;;;;4.01;100.00;95457.84;1024429;28;20760;-69
2023/03/18 02:31:48;;;;;;;13.38;6.15;;;;;;;4.00;100.00;95458.84;1027121;28;20293;-69
2023/03/18 02:32:18;;;;;;;11.82;6.82;;;;;;;3.96;100.00;95455.16;1023599;28;20663;-70